Time;durP1;ratioP1;P1;durP2;ratioP2;P2;SDS_P1;SDS_P2;PMS_P1;PMS_P2;Temp;Humidity;BMP_temperature;BMP_pressure;BME280_temperature;BME280_humidity;BME280_pressure;Samples;Min_cycle;Max_cycle;Signal;HPM_P1;HPM_P2
2023/08/26 00:00:34;;;;;;;5.88;5.25;;;24.80;72.60;;;;;;5030048;28;20749;-81
2023/08/26 00:03:03;;;;;;;6.47;5.82;;;24.80;72.70;;;;;;5013841;28;20247;-81
2023/08/26 00:05:29;;;;;;;6.13;5.53;;;24.80;72.60;;;;;;5013610;28;20199;-81
2023/08/26 00:07:57;;;;;;;8.07;5.65;;;24.80;72.60;;;;;;5013481;28;20205;-81
2023/08/26 00:10:24;;;;;;;7.18;5.40;;;24.80;72.60;;;;;;5013748;28;20247;-81
2023/08/26 00:12:52;;;;;;;5.55;5.03;;;24.80;72.60;;;;;;5014155;28;20284;-80
2023/08/26 00:15:19;;;;;;;5.65;4.90;;;24.80;72.50;;;;;;5013827;28;20204;-81
2023/08/26 00:17:46;;;;;;;6.63;4.80;;;24.70;72.40;;;;;;5014311;28;20204;-81
2023/08/26 00:20:15;;;;;;;5.30;4.80;;;24.70;72.50;;;;;;5015443;28;20204;-81
2023/08/26 00:22:42;;;;;;;5.03;4.60;;;24.70;72.30;;;;;;5020639;28;20685;-81
2023/08/26 00:25:10;;;;;;;6.30;4.90;;;24.70;72.40;;;;;;5027988;28;20208;-81
2023/08/26 00:27:37;;;;;;;6.57;4.88;;;24.70;72.30;;;;;;5027889;28;20268;-81
2023/08/26 00:30:06;;;;;;;6.22;4.63;;;24.70;72.30;;;;;;5012895;28;20211;-81
2023/08/26 00:32:33;;;;;;;5.25;4.75;;;24.70;72.30;;;;;;5023072;28;20204;-81
2023/08/26 00:35:00;;;;;;;6.53;4.65;;;24.70;72.40;;;;;;5020694;28;20208;-81
2023/08/26 00:37:29;;;;;;;4.85;4.45;;;24.70;73.10;;;;;;5036945;28;20197;-81
2023/08/26 00:39:56;;;;;;;6.97;4.75;;;24.70;72.20;;;;;;5035397;28;20199;-81
2023/08/26 00:42:25;;;;;;;5.03;4.53;;;24.70;73.00;;;;;;5016950;28;20303;-80
2023/08/26 00:44:53;;;;;;;5.22;4.72;;;24.70;72.30;;;;;;5017359;28;20196;-80
2023/08/26 00:47:20;;;;;;;5.43;4.30;;;24.70;72.20;;;;;;5017286;28;20639;-81
2023/08/26 00:49:46;;;;;;;4.82;4.30;;;24.60;72.10;;;;;;5017327;28;20196;-81
2023/08/26 00:52:15;;;;;;;6.20;4.38;;;24.60;72.00;;;;;;5016584;28;20651;-81
2023/08/26 00:54:43;;;;;;;6.38;4.45;;;24.60;71.70;;;;;;5016787;28;20282;-80
2023/08/26 00:57:32;;;;;;;4.75;4.03;;;24.60;71.80;;;;;;5018286;28;20188;-81
2023/08/26 00:59:59;;;;;;;4.57;4.18;;;24.60;72.00;;;;;;5016567;28;20585;-81
2023/08/26 01:02:26;;;;;;;4.65;4.25;;;24.70;72.00;;;;;;5033051;28;20231;-80
2023/08/26 01:04:53;;;;;;;5.43;4.43;;;24.70;72.30;;;;;;5016433;28;20188;-80
2023/08/26 01:07:23;;;;;;;5.10;4.38;;;24.60;71.90;;;;;;5033359;28;20223;-81
2023/08/26 01:09:52;;;;;;;4.50;4.10;;;24.60;71.90;;;;;;5016758;28;20197;-81
2023/08/26 01:12:23;;;;;;;4.70;4.20;;;24.60;71.90;;;;;;5019995;28;20227;-81
2023/08/26 01:14:56;;;;;;;4.78;4.18;;;24.60;71.90;;;;;;5018900;28;20212;-81
2023/08/26 01:17:23;;;;;;;4.50;4.10;;;24.60;71.80;;;;;;5019854;28;20272;-80
2023/08/26 01:19:49;;;;;;;4.57;4.18;;;24.60;71.80;;;;;;5019214;28;20224;-80
2023/08/26 01:22:17;;;;;;;4.57;4.15;;;24.60;71.80;;;;;;5018315;28;20274;-80
2023/08/26 01:24:45;;;;;;;4.55;4.00;;;24.60;71.80;;;;;;5035101;28;20192;-80
2023/08/26 01:27:15;;;;;;;6.03;4.07;;;24.60;71.80;;;;;;5019010;28;20206;-80
2023/08/26 01:29:42;;;;;;;4.75;4.18;;;24.60;71.70;;;;;;5018454;28;20332;-81
2023/08/26 01:32:16;;;;;;;4.82;4.13;;;24.60;71.80;;;;;;5018420;28;20224;-80
2023/08/26 01:34:47;;;;;;;4.55;4.07;;;24.50;71.70;;;;;;5017736;28;20321;-80
2023/08/26 01:37:14;;;;;;;4.78;4.38;;;24.50;71.60;;;;;;5018943;28;20176;-80
2023/08/26 01:39:41;;;;;;;4.20;3.80;;;24.60;71.70;;;;;;5016864;28;20610;-80
2023/08/26 01:42:10;;;;;;;5.68;3.92;;;24.50;71.60;;;;;;5033233;28;20570;-81
2023/08/26 01:44:37;;;;;;;4.82;4.13;;;24.60;71.70;;;;;;5016550;28;20200;-80
2023/08/26 01:47:05;;;;;;;5.28;4.25;;;24.50;71.70;;;;;;5017594;28;20554;-81
2023/08/26 01:49:32;;;;;;;4.38;3.97;;;24.50;71.70;;;;;;5017037;28;20611;-81
2023/08/26 01:51:59;;;;;;;4.13;3.72;;;24.50;71.70;;;;;;5033439;28;20239;-80
2023/08/26 01:54:30;;;;;;;4.47;3.72;;;24.50;71.70;;;;;;5015915;28;20215;-80
2023/08/26 01:56:57;;;;;;;4.38;3.83;;;24.50;71.60;;;;;;5015305;28;20258;-80
2023/08/26 01:59:26;;;;;;;3.85;3.55;;;24.50;71.60;;;;;;5015540;28;20196;-80
2023/08/26 02:01:53;;;;;;;4.72;3.30;;;24.50;71.60;;;;;;5015754;28;20220;-80
2023/08/26 02:04:24;;;;;;;4.60;3.15;;;24.50;71.60;;;;;;5015858;28;20196;-80
2023/08/26 02:06:51;;;;;;;4.25;3.35;;;24.50;72.40;;;;;;5015952;28;20205;-80
2023/08/26 02:09:18;;;;;;;6.75;3.30;;;24.50;71.60;;;;;;5015478;28;20200;-80
2023/08/26 02:11:46;;;;;;;5.05;3.22;;;24.50;71.60;;;;;;5015316;28;20583;-80
2023/08/26 02:14:13;;;;;;;3.95;3.28;;;24.50;71.60;;;;;;5014969;28;20224;-80
2023/08/26 02:16:41;;;;;;;3.58;3.13;;;24.50;71.60;;;;;;4998675;28;20203;-80
2023/08/26 02:19:08;;;;;;;4.22;3.40;;;24.50;71.50;;;;;;4998832;28;20292;-80
2023/08/26 02:21:35;;;;;;;5.10;3.17;;;24.50;71.60;;;;;;4998945;28;20334;-80
2023/08/26 02:24:02;;;;;;;3.35;3.05;;;24.50;71.50;;;;;;5015624;28;20196;-80
2023/08/26 02:26:29;;;;;;;2.97;2.67;;;24.50;71.50;;;;;;5016646;28;20204;-80
2023/08/26 02:28:56;;;;;;;3.20;2.88;;;24.40;71.30;;;;;;5016335;28;20208;-80
2023/08/26 02:31:23;;;;;;;3.33;2.90;;;24.50;71.50;;;;;;4999956;28;20232;-80
2023/08/26 02:33:52;;;;;;;3.42;2.88;;;24.40;71.50;;;;;;5016437;28;20624;-80
2023/08/26 02:36:19;;;;;;;3.30;2.80;;;24.40;71.40;;;;;;5016732;28;20280;-80
2023/08/26 02:38:48;;;;;;;3.92;2.83;;;24.40;71.50;;;;;;5016010;28;20197;-81
2023/08/26 02:41:15;;;;;;;3.38;2.78;;;24.40;71.30;;;;;;5015944;28;20219;-81
2023/08/26 02:43:42;;;;;;;3.88;2.83;;;24.40;71.20;;;;;;5016104;28;20208;-81
2023/08/26 02:46:09;;;;;;;3.05;2.78;;;24.40;71.30;;;;;;5032781;28;20213;-81
2023/08/26 02:48:36;;;;;;;3.20;2.90;;;24.40;71.40;;;;;;5016500;28;20192;-80
2023/08/26 02:51:05;;;;;;;4.57;2.95;;;24.40;71.30;;;;;;5015860;28;20278;-81
2023/08/26 02:53:32;;;;;;;3.42;3.13;;;24.40;71.40;;;;;;5015274;28;20197;-81
2023/08/26 02:56:00;;;;;;;4.20;2.78;;;24.40;71.50;;;;;;5015352;28;20231;-80
2023/08/26 02:58:27;;;;;;;3.63;2.63;;;24.40;71.30;;;;;;5015135;28;20609;-80
2023/08/26 03:00:55;;;;;;;3.10;2.78;;;24.40;72.20;;;;;;5014512;28;20228;-80
2023/08/26 03:03:22;;;;;;;3.60;2.65;;;24.50;71.30;;;;;;5015159;28;20207;-81
2023/08/26 03:05:49;;;;;;;3.65;2.45;;;24.40;71.10;;;;;;5014716;28;20261;-81
2023/08/26 03:08:19;;;;;;;3.53;2.78;;;24.40;71.20;;;;;;5014697;28;20211;-80
2023/08/26 03:10:56;;;;;;;3.20;2.50;;;24.40;71.20;;;;;;5014627;28;20223;-80
2023/08/26 03:13:23;;;;;;;4.68;2.58;;;24.40;71.30;;;;;;5014628;28;20207;-81
2023/08/26 03:15:50;;;;;;;3.92;2.70;;;24.40;71.30;;;;;;5031265;28;20589;-79
2023/08/26 03:18:17;;;;;;;2.80;2.50;;;24.40;71.20;;;;;;5031021;28;20196;-80
2023/08/26 03:20:44;;;;;;;2.72;2.30;;;24.50;71.30;;;;;;4998242;28;20691;-81
2023/08/26 03:23:12;;;;;;;3.25;2.67;;;24.40;71.30;;;;;;5015049;28;20228;-81
2023/08/26 03:25:41;;;;;;;3.13;2.60;;;24.40;71.30;;;;;;5014450;28;20188;-81
2023/08/26 03:28:08;;;;;;;4.18;2.65;;;24.50;71.20;;;;;;5014729;28;20196;-81
2023/08/26 03:30:37;;;;;;;3.25;2.42;;;24.50;71.30;;;;;;5014574;28;20698;-80
2023/08/26 03:33:04;;;;;;;2.58;2.35;;;24.50;70.90;;;;;;5014952;28;20197;-81
2023/08/26 03:35:32;;;;;;;3.40;2.55;;;24.50;70.80;;;;;;5014322;28;20220;-81
2023/08/26 03:37:59;;;;;;;2.70;2.50;;;24.50;70.70;;;;;;5015299;28;20212;-81
2023/08/26 03:40:26;;;;;;;3.25;2.80;;;24.50;70.60;;;;;;5014361;28;20266;-80
2023/08/26 03:42:54;;;;;;;3.58;2.53;;;24.50;70.20;;;;;;4997883;28;20258;-81
2023/08/26 03:45:21;;;;;;;2.90;2.40;;;24.50;70.10;;;;;;5014192;28;20203;-81
2023/08/26 03:47:49;;;;;;;2.78;2.10;;;24.50;69.80;;;;;;5014187;28;20203;-81
2023/08/26 03:50:18;;;;;;;4.00;2.50;;;24.50;69.50;;;;;;5014120;28;20192;-81
2023/08/26 03:52:45;;;;;;;3.15;2.40;;;24.60;69.40;;;;;;5014155;28;20200;-81
2023/08/26 03:55:13;;;;;;;4.03;2.30;;;24.60;69.30;;;;;;5013192;28;20219;-81
2023/08/26 03:57:41;;;;;;;4.95;2.35;;;24.60;69.30;;;;;;5013479;28;20197;-81
2023/08/26 04:00:11;;;;;;;4.30;2.40;;;24.60;69.00;;;;;;5013074;28;20629;-81
2023/08/26 04:02:38;;;;;;;2.30;2.10;;;24.60;69.10;;;;;;5013453;28;20200;-81
2023/08/26 04:05:07;;;;;;;2.30;2.10;;;24.60;68.90;;;;;;5012942;28;20219;-81
2023/08/26 04:07:34;;;;;;;3.45;2.10;;;24.60;68.90;;;;;;5059662;22;20215;-81
2023/08/26 04:10:01;;;;;;;4.43;2.30;;;24.60;68.90;;;;;;5053466;28;20199;-80
2023/08/26 04:12:31;;;;;;;2.47;2.10;;;24.50;69.10;;;;;;5033587;28;20235;-81
2023/08/26 04:14:58;;;;;;;2.78;2.40;;;24.50;69.20;;;;;;5033237;28;20220;-80
2023/08/26 04:17:26;;;;;;;3.63;2.28;;;24.50;69.00;;;;;;5049654;28;20732;-82
2023/08/26 04:19:54;;;;;;;3.97;2.40;;;24.50;69.10;;;;;;5034102;28;20195;-82
2023/08/26 04:22:21;;;;;;;3.67;2.22;;;24.50;69.10;;;;;;5049305;28;20229;-82
2023/08/26 04:24:48;;;;;;;2.35;2.15;;;24.50;69.10;;;;;;5049596;28;20200;-82
2023/08/26 04:27:16;;;;;;;2.90;2.35;;;24.50;69.00;;;;;;5033779;28;20196;-82
2023/08/26 04:29:43;;;;;;;4.38;2.03;;;24.50;69.20;;;;;;5050093;28;20257;-82
2023/08/26 04:32:11;;;;;;;3.05;2.38;;;24.50;69.20;;;;;;5050145;28;20223;-82
2023/08/26 04:34:39;;;;;;;3.92;2.40;;;24.50;69.20;;;;;;5049677;28;20546;-82
2023/08/26 04:37:06;;;;;;;3.50;2.35;;;24.40;69.00;;;;;;5033186;28;20195;-82
2023/08/26 04:39:34;;;;;;;4.10;1.90;;;24.40;69.00;;;;;;5049884;28;20206;-81
2023/08/26 04:42:03;;;;;;;3.08;1.90;;;24.40;69.10;;;;;;5049986;28;20226;-82
2023/08/26 04:44:31;;;;;;;2.88;2.10;;;24.40;69.10;;;;;;5032997;28;20655;-82
2023/08/26 04:46:58;;;;;;;4.10;1.90;;;24.40;69.10;;;;;;5033159;28;20219;-82
2023/08/26 04:49:26;;;;;;;2.40;2.20;;;24.40;69.10;;;;;;5050578;28;20200;-82
2023/08/26 04:51:54;;;;;;;3.83;2.38;;;24.40;69.10;;;;;;5032651;28;20270;-81
2023/08/26 04:54:22;;;;;;;2.08;1.90;;;24.40;69.10;;;;;;5049549;28;20571;-81
2023/08/26 04:56:49;;;;;;;4.10;2.25;;;24.40;69.10;;;;;;5032853;28;20299;-81
2023/08/26 04:59:17;;;;;;;2.78;2.10;;;24.40;69.10;;;;;;5032896;28;20200;-81
2023/08/26 05:01:45;;;;;;;4.93;2.55;;;24.40;69.10;;;;;;5049435;28;20247;-81
2023/08/26 05:04:12;;;;;;;4.35;2.30;;;24.30;69.00;;;;;;5049381;28;20196;-81
2023/08/26 05:06:39;;;;;;;3.42;2.30;;;24.40;69.10;;;;;;5032570;28;20195;-81
2023/08/26 05:09:08;;;;;;;3.13;1.90;;;24.30;68.90;;;;;;5032813;28;20635;-81
2023/08/26 05:11:35;;;;;;;5.03;2.35;;;24.40;69.10;;;;;;5032502;28;20223;-81
2023/08/26 05:14:02;;;;;;;2.35;2.15;;;24.30;69.20;;;;;;5032318;28;20647;-81
2023/08/26 05:16:29;;;;;;;2.65;2.38;;;24.30;69.10;;;;;;5050714;28;20212;-81
2023/08/26 05:18:57;;;;;;;3.28;2.45;;;24.40;69.40;;;;;;5052928;28;20231;-81
2023/08/26 05:21:23;;;;;;;4.82;2.38;;;24.30;69.30;;;;;;5052898;28;20557;-81
2023/08/26 05:23:51;;;;;;;4.88;2.55;;;24.30;69.30;;;;;;5052737;28;20208;-81
2023/08/26 05:26:19;;;;;;;3.85;2.72;;;24.30;69.20;;;;;;5053128;28;20223;-81
2023/08/26 05:28:47;;;;;;;3.05;2.28;;;24.30;69.30;;;;;;5052592;28;20192;-81
2023/08/26 05:31:15;;;;;;;2.85;2.22;;;24.30;69.40;;;;;;5036125;28;20699;-81
2023/08/26 05:33:42;;;;;;;4.03;2.50;;;24.30;69.50;;;;;;5052543;28;20231;-81
2023/08/26 05:36:11;;;;;;;3.72;2.50;;;24.30;69.50;;;;;;5052422;28;20690;-81
2023/08/26 05:38:38;;;;;;;3.30;2.63;;;24.30;69.40;;;;;;5052647;28;20654;-81
2023/08/26 05:41:05;;;;;;;2.95;2.40;;;24.30;69.40;;;;;;5053288;28;20678;-81
2023/08/26 05:43:34;;;;;;;2.67;2.38;;;24.30;69.40;;;;;;5019382;28;20724;-81
2023/08/26 05:46:01;;;;;;;2.40;2.20;;;24.30;69.40;;;;;;5052643;28;20200;-81
2023/08/26 05:48:29;;;;;;;2.63;2.42;;;24.30;69.50;;;;;;5036088;28;20220;-81
2023/08/26 05:50:58;;;;;;;4.82;2.50;;;24.30;69.50;;;;;;5035614;28;20590;-81
2023/08/26 05:53:26;;;;;;;2.85;2.47;;;24.40;69.70;;;;;;5052192;28;20662;-81
2023/08/26 05:55:53;;;;;;;4.40;2.65;;;24.40;69.30;;;;;;5052523;28;20212;-81
2023/08/26 05:58:19;;;;;;;2.75;2.55;;;24.50;69.20;;;;;;5052035;28;20188;-81
2023/08/26 06:00:48;;;;;;;3.97;2.70;;;24.60;69.10;;;;;;5053024;28;20308;-81
2023/08/26 06:03:15;;;;;;;3.28;2.33;;;24.70;68.70;;;;;;5052013;28;20413;-81
2023/08/26 06:05:42;;;;;;;3.28;2.92;;;24.90;68.30;;;;;;5052851;28;20202;-82
2023/08/26 06:08:10;;;;;;;2.70;2.50;;;25.00;67.70;;;;;;5051836;28;20287;-81
2023/08/26 06:10:37;;;;;;;2.88;2.58;;;25.20;67.30;;;;;;5051851;28;20296;-81
2023/08/26 06:13:05;;;;;;;3.50;2.50;;;25.40;66.80;;;;;;5051707;28;20250;-81
2023/08/26 06:15:33;;;;;;;3.38;2.53;;;25.50;66.20;;;;;;5052788;28;20215;-82
2023/08/26 06:18:01;;;;;;;4.68;2.35;;;25.60;65.90;;;;;;5036050;28;20192;-82
2023/08/26 06:20:29;;;;;;;3.17;2.72;;;25.60;65.60;;;;;;5052002;28;20234;-82
2023/08/26 06:22:56;;;;;;;5.53;2.60;;;25.70;65.20;;;;;;5019137;28;20196;-82
2023/08/26 06:25:23;;;;;;;2.58;2.22;;;25.80;65.00;;;;;;5053609;28;20200;-82
2023/08/26 06:27:50;;;;;;;3.60;2.53;;;25.90;64.80;;;;;;5057363;28;20187;-82
2023/08/26 06:30:18;;;;;;;3.85;2.75;;;25.90;64.60;;;;;;5036163;28;20195;-82
2023/08/26 06:32:45;;;;;;;3.20;2.72;;;26.00;64.50;;;;;;5036381;28;20646;-82
2023/08/26 06:35:16;;;;;;;2.22;2.10;;;26.10;64.10;;;;;;5035985;28;20196;-81
2023/08/26 06:37:43;;;;;;;4.25;2.60;;;26.20;63.60;;;;;;5035552;28;20195;-81
2023/08/26 06:40:12;;;;;;;3.97;2.50;;;26.30;63.20;;;;;;5052014;28;20247;-81
2023/08/26 06:42:39;;;;;;;3.33;2.60;;;26.40;63.00;;;;;;5050214;22;20231;-81
2023/08/26 06:45:10;;;;;;;3.17;2.80;;;26.40;62.90;;;;;;5003082;28;20199;-80
2023/08/26 06:47:39;;;;;;;4.75;2.42;;;26.40;62.80;;;;;;5002686;28;20604;-81
2023/08/26 06:50:08;;;;;;;4.30;2.47;;;26.40;62.70;;;;;;5035319;28;20397;-81
2023/08/26 06:52:36;;;;;;;3.90;2.78;;;26.40;62.60;;;;;;5034940;28;20191;-81
2023/08/26 06:55:04;;;;;;;3.15;2.72;;;26.40;62.70;;;;;;5017801;28;20650;-81
2023/08/26 06:57:31;;;;;;;3.38;2.67;;;26.30;62.80;;;;;;5034408;28;20319;-81
2023/08/26 06:59:58;;;;;;;2.72;2.53;;;26.40;63.00;;;;;;5002852;28;20600;-81
2023/08/26 07:02:25;;;;;;;3.03;2.50;;;26.30;62.90;;;;;;5034780;28;20266;-82
2023/08/26 07:04:52;;;;;;;3.15;2.42;;;26.30;62.90;;;;;;5018232;28;20199;-81
2023/08/26 07:07:19;;;;;;;3.00;2.70;;;26.40;63.10;;;;;;5038656;28;20206;-81
2023/08/26 07:09:48;;;;;;;3.40;2.78;;;26.30;63.00;;;;;;5015322;28;20194;-81
2023/08/26 07:12:16;;;;;;;3.95;2.70;;;26.30;63.00;;;;;;5015128;28;20216;-81
2023/08/26 07:14:43;;;;;;;3.17;2.60;;;26.20;63.10;;;;;;5142481;22;20223;-82
2023/08/26 07:17:10;;;;;;;3.88;2.78;;;26.20;63.30;;;;;;5054626;28;20589;-80
2023/08/26 07:19:37;;;;;;;3.38;2.95;;;26.20;63.40;;;;;;5037346;28;20564;-80
2023/08/26 07:22:04;;;;;;;4.00;2.92;;;26.20;63.60;;;;;;5055003;28;20261;-80
2023/08/26 07:24:31;;;;;;;4.45;2.97;;;26.20;63.70;;;;;;5053644;28;20671;-80
2023/08/26 07:26:59;;;;;;;3.22;2.90;;;26.10;64.00;;;;;;5053953;28;20202;-80
2023/08/26 07:29:26;;;;;;;3.33;2.60;;;26.10;64.50;;;;;;5053900;28;20252;-81
2023/08/26 07:31:54;;;;;;;4.03;2.90;;;26.10;64.20;;;;;;5037407;28;20321;-81
2023/08/26 07:34:21;;;;;;;3.95;2.60;;;26.10;64.30;;;;;;5037228;28;20202;-82
2023/08/26 07:36:48;;;;;;;4.55;3.00;;;26.10;64.40;;;;;;5050940;28;20222;-82
2023/08/26 07:39:15;;;;;;;3.83;2.80;;;26.00;64.40;;;;;;5053434;28;20653;-81
2023/08/26 07:41:42;;;;;;;3.88;2.90;;;26.00;64.70;;;;;;5053152;28;20226;-81
2023/08/26 07:44:10;;;;;;;5.72;3.00;;;26.10;64.20;;;;;;5053368;28;20191;-81
2023/08/26 07:46:37;;;;;;;4.90;3.17;;;26.20;63.60;;;;;;5053798;28;20187;-80
2023/08/26 07:49:05;;;;;;;5.38;3.28;;;26.20;61.80;;;;;;5053468;28;20198;-81
2023/08/26 07:51:32;;;;;;;4.78;3.30;;;26.00;63.90;;;;;;5053180;28;20218;-81
2023/08/26 07:53:59;;;;;;;4.78;3.20;;;26.10;62.80;;;;;;5053293;28;20206;-81
2023/08/26 07:56:26;;;;;;;5.40;3.08;;;26.10;59.90;;;;;;5054321;28;20238;-82
2023/08/26 07:58:53;;;;;;;4.70;3.22;;;26.00;60.70;;;;;;5037143;28;20268;-82
2023/08/26 08:01:22;;;;;;;5.82;3.40;;;25.90;62.60;;;;;;5053902;28;20642;-82
2023/08/26 08:03:49;;;;;;;4.45;3.30;;;25.90;64.40;;;;;;5053808;28;20191;-82
2023/08/26 08:06:16;;;;;;;5.15;3.75;;;25.90;64.30;;;;;;5053601;28;20195;-82
2023/08/26 08:08:43;;;;;;;5.00;3.25;;;26.10;64.80;;;;;;5053287;28;20198;-82
2023/08/26 08:11:10;;;;;;;5.28;3.33;;;26.10;63.50;;;;;;5053787;28;20229;-84
2023/08/26 08:13:37;;;;;;;4.07;3.08;;;25.90;64.20;;;;;;5036803;28;20280;-82
2023/08/26 08:16:04;;;;;;;5.75;3.55;;;26.00;62.70;;;;;;5036600;28;20234;-83
2023/08/26 08:18:32;;;;;;;4.82;3.67;;;25.90;63.10;;;;;;5053042;28;20572;-83
2023/08/26 08:20:59;;;;;;;6.05;3.78;;;25.80;64.50;;;;;;5053411;28;20218;-82
2023/08/26 08:23:26;;;;;;;5.75;3.60;;;25.60;64.90;;;;;;5054201;28;20202;-82
2023/08/26 08:25:53;;;;;;;6.22;3.67;;;25.40;64.20;;;;;;5037525;28;20625;-82
2023/08/26 08:28:20;;;;;;;4.82;3.80;;;25.30;66.00;;;;;;5055787;28;20229;-82
2023/08/26 08:30:47;;;;;;;5.82;3.47;;;25.20;65.80;;;;;;5040929;28;20661;-82
2023/08/26 08:33:14;;;;;;;4.13;3.40;;;25.00;66.50;;;;;;5058319;28;20195;-83
2023/08/26 08:35:42;;;;;;;4.85;3.60;;;24.90;67.90;;;;;;5056812;28;20253;-82
2023/08/26 08:38:09;;;;;;;4.18;3.47;;;24.90;68.30;;;;;;5056346;28;20242;-82
2023/08/26 08:40:37;;;;;;;6.82;3.67;;;24.80;67.90;;;;;;5056265;28;20236;-83
2023/08/26 08:43:04;;;;;;;4.18;3.42;;;24.90;68.30;;;;;;5056772;28;20194;-83
2023/08/26 08:45:31;;;;;;;3.85;3.50;;;24.90;68.80;;;;;;5055168;28;20597;-83
2023/08/26 08:47:58;;;;;;;5.47;3.38;;;24.90;67.80;;;;;;5053045;28;20612;-83
2023/08/26 08:50:25;;;;;;;4.15;3.45;;;24.80;67.50;;;;;;5036368;28;20249;-83
2023/08/26 08:52:56;;;;;;;3.97;3.55;;;24.90;67.30;;;;;;5056873;28;20253;-82
2023/08/26 08:55:23;;;;;;;4.40;3.50;;;24.90;68.00;;;;;;5057197;28;20641;-83
2023/08/26 08:57:50;;;;;;;4.43;3.63;;;24.90;66.10;;;;;;5041613;28;20225;-83
2023/08/26 09:00:17;;;;;;;6.53;3.35;;;25.00;66.10;;;;;;5059968;28;20194;-83
2023/08/26 09:02:44;;;;;;;6.57;3.47;;;25.00;65.00;;;;;;5060907;28;20202;-83
2023/08/26 09:05:11;;;;;;;7.00;3.53;;;25.10;64.40;;;;;;5057893;28;20195;-84
2023/08/26 09:07:39;;;;;;;6.00;3.25;;;25.10;65.50;;;;;;5059742;28;20187;-83
2023/08/26 09:10:09;;;;;;;5.70;3.60;;;25.10;65.30;;;;;;5061348;28;20304;-83
2023/08/26 09:12:36;;;;;;;6.10;3.50;;;25.10;65.30;;;;;;5059973;28;20198;-83
2023/08/26 09:15:04;;;;;;;4.50;3.28;;;25.20;64.70;;;;;;5059626;28;20206;-83
2023/08/26 09:17:31;;;;;;;4.30;3.50;;;25.20;64.20;;;;;;5060913;28;20239;-83
2023/08/26 09:20:00;;;;;;;6.18;3.30;;;25.30;63.00;;;;;;5061502;28;20297;-83
2023/08/26 09:22:27;;;;;;;5.70;3.28;;;25.30;62.40;;;;;;5057646;28;20202;-84
2023/08/26 09:24:55;;;;;;;5.45;3.35;;;25.30;63.20;;;;;;5059308;28;20217;-84
2023/08/26 09:27:23;;;;;;;4.20;3.20;;;25.30;63.20;;;;;;5059785;28;20210;-84
2023/08/26 09:29:51;;;;;;;5.43;3.22;;;25.30;63.50;;;;;;5065006;28;20198;-83
2023/08/26 09:32:32;;;;;;;5.05;3.83;;;25.30;63.00;;;;;;5065295;28;20211;-84
2023/08/26 09:35:09;;;;;;;6.72;3.78;;;25.40;63.60;;;;;;5057514;28;20248;-83
2023/08/26 09:37:35;;;;;;;6.28;3.55;;;25.30;62.80;;;;;;5057851;28;20218;-83
2023/08/26 09:40:03;;;;;;;6.60;3.50;;;25.30;63.00;;;;;;5057050;28;20313;-82
2023/08/26 09:42:31;;;;;;;6.00;3.30;;;25.10;61.70;;;;;;5040428;28;20585;-83
2023/08/26 09:44:58;;;;;;;6.63;3.58;;;25.10;62.70;;;;;;5040231;28;20201;-83
2023/08/26 09:47:28;;;;;;;5.63;3.47;;;25.10;63.50;;;;;;5057215;28;20546;-83
2023/08/26 09:49:55;;;;;;;5.25;3.28;;;25.10;64.60;;;;;;5056327;28;20195;-84
2023/08/26 09:52:23;;;;;;;5.72;3.45;;;25.10;64.00;;;;;;5055576;28;20305;-83
2023/08/26 09:54:50;;;;;;;5.22;3.50;;;25.20;64.00;;;;;;5039128;28;20248;-84
2023/08/26 09:57:17;;;;;;;6.88;3.58;;;25.30;63.50;;;;;;5055975;28;20241;-83
2023/08/26 09:59:46;;;;;;;5.18;3.58;;;25.30;63.40;;;;;;5056116;28;20203;-83
2023/08/26 10:02:17;;;;;;;5.28;3.20;;;25.30;62.20;;;;;;5054355;28;20222;-82
2023/08/26 10:04:45;;;;;;;5.28;3.40;;;25.30;61.20;;;;;;5057682;28;20197;-83
2023/08/26 10:07:12;;;;;;;7.15;3.58;;;25.30;60.70;;;;;;5071947;22;20276;-84
2023/08/26 10:09:41;;;;;;;6.68;3.53;;;25.40;61.10;;;;;;5073171;28;20689;-84
2023/08/26 10:12:11;;;;;;;4.68;3.20;;;25.30;61.10;;;;;;5070080;28;20649;-85
2023/08/26 10:14:38;;;;;;;6.28;3.42;;;25.30;62.20;;;;;;5069860;28;20289;-85
2023/08/26 10:17:08;;;;;;;6.82;3.40;;;25.30;60.60;;;;;;5070034;28;20773;-85
2023/08/26 10:19:35;;;;;;;5.90;3.70;;;25.30;61.20;;;;;;5037744;28;20658;-85
2023/08/26 10:22:02;;;;;;;6.68;3.15;;;25.30;60.90;;;;;;5069884;28;20230;-86
2023/08/26 10:24:29;;;;;;;4.75;3.20;;;25.20;62.90;;;;;;5035961;28;20203;-84
2023/08/26 10:26:56;;;;;;;5.03;3.53;;;25.10;61.30;;;;;;5035805;28;20322;-83
2023/08/26 10:29:24;;;;;;;6.07;3.47;;;25.10;63.10;;;;;;5069950;28;20234;-84
2023/08/26 10:31:51;;;;;;;5.68;4.03;;;25.10;64.00;;;;;;5036629;28;20624;-85
2023/08/26 10:34:20;;;;;;;4.30;3.90;;;25.10;65.00;;;;;;5071809;28;20669;-85
2023/08/26 10:36:47;;;;;;;6.25;3.88;;;24.90;65.50;;;;;;5037118;28;20219;-85
2023/08/26 10:39:16;;;;;;;5.70;4.00;;;24.90;64.80;;;;;;5071085;28;20230;-85
2023/08/26 10:42:12;;;;;;;6.18;3.90;;;24.80;65.80;;;;;;5037654;28;20219;-84
2023/08/26 10:44:40;;;;;;;4.90;4.03;;;24.80;66.70;;;;;;5068877;28;20212;-86
2023/08/26 10:47:07;;;;;;;5.68;4.13;;;24.80;65.00;;;;;;5069199;28;20191;-86
2023/08/26 10:49:37;;;;;;;6.43;3.72;;;24.90;63.80;;;;;;5036406;28;20196;-85
2023/08/26 10:52:15;;;;;;;6.82;3.75;;;24.90;62.10;;;;;;5036729;28;20282;-84
2023/08/26 10:54:42;;;;;;;6.10;3.95;;;24.90;62.70;;;;;;5037051;28;20219;-85
2023/08/26 10:57:09;;;;;;;5.30;3.38;;;24.90;62.50;;;;;;5034711;28;20230;-84
2023/08/26 10:59:37;;;;;;;5.85;3.60;;;24.90;62.70;;;;;;5035107;28;20204;-84
2023/08/26 11:02:05;;;;;;;4.38;3.70;;;24.90;62.50;;;;;;5035127;28;20216;-84
2023/08/26 11:04:32;;;;;;;4.47;3.30;;;24.90;62.60;;;;;;5035128;28;20639;-84
2023/08/26 11:07:01;;;;;;;4.43;3.50;;;24.90;61.90;;;;;;5069244;28;20203;-84
2023/08/26 11:09:29;;;;;;;4.35;3.58;;;24.90;61.80;;;;;;5035766;28;20212;-84
2023/08/26 11:11:56;;;;;;;6.78;3.40;;;24.90;61.40;;;;;;5035375;28;20588;-84
2023/08/26 11:14:31;;;;;;;6.32;3.42;;;25.00;61.90;;;;;;5035221;28;20269;-84
2023/08/26 11:17:02;;;;;;;5.25;3.60;;;25.00;62.10;;;;;;5035029;28;20239;-84
2023/08/26 11:19:29;;;;;;;4.13;3.38;;;25.00;62.30;;;;;;5068467;28;20195;-85
2023/08/26 11:21:56;;;;;;;4.57;3.45;;;25.00;61.60;;;;;;5034964;28;20219;-83
2023/08/26 11:24:31;;;;;;;5.25;3.30;;;25.00;61.30;;;;;;5035243;28;20732;-83
2023/08/26 11:26:59;;;;;;;3.90;3.42;;;25.10;61.20;;;;;;5035686;28;20560;-84
2023/08/26 11:29:26;;;;;;;7.22;3.38;;;25.10;61.70;;;;;;5061206;28;20220;-83
2023/08/26 11:31:53;;;;;;;3.85;3.35;;;25.10;61.00;;;;;;5028386;28;20215;-84
2023/08/26 11:34:27;;;;;;;3.90;3.03;;;25.20;60.80;;;;;;5045602;28;20302;-83
2023/08/26 11:36:54;;;;;;;6.72;3.20;;;25.20;61.20;;;;;;5040063;28;20208;-82
2023/08/26 11:39:21;;;;;;;5.00;3.28;;;25.30;61.60;;;;;;5021251;28;20294;-83
2023/08/26 11:41:50;;;;;;;10.38;3.42;;;25.30;62.00;;;;;;5035789;28;20265;-82
2023/08/26 11:44:17;;;;;;;5.53;3.20;;;25.30;62.00;;;;;;5034572;28;20650;-83
2023/08/26 11:46:44;;;;;;;4.25;3.20;;;25.30;62.10;;;;;;5034599;28;20294;-82
2023/08/26 11:49:12;;;;;;;4.10;3.08;;;25.30;62.30;;;;;;5034454;28;20199;-83
2023/08/26 11:51:42;;;;;;;4.28;2.83;;;25.30;62.60;;;;;;5034391;28;20247;-83
2023/08/26 11:54:15;;;;;;;5.25;2.95;;;25.30;62.60;;;;;;5035255;28;20562;-83
2023/08/26 11:56:45;;;;;;;3.63;2.92;;;25.30;62.80;;;;;;5034092;28;20196;-82
2023/08/26 11:59:20;;;;;;;3.75;3.30;;;25.30;62.90;;;;;;5035135;28;20211;-83
2023/08/26 12:01:47;;;;;;;5.30;3.10;;;25.30;62.90;;;;;;5034726;28;20221;-83
2023/08/26 12:04:15;;;;;;;5.00;3.20;;;25.30;63.00;;;;;;5033641;28;20199;-83
2023/08/26 12:06:42;;;;;;;5.05;3.40;;;25.30;63.00;;;;;;5071863;28;20278;-83
2023/08/26 12:09:11;;;;;;;4.15;3.15;;;25.30;63.10;;;;;;5037419;28;20183;-83
2023/08/26 12:11:39;;;;;;;4.55;3.30;;;25.30;63.10;;;;;;5037867;28;20686;-83
2023/08/26 12:14:17;;;;;;;3.65;3.13;;;25.30;63.20;;;;;;5037613;28;20294;-84
2023/08/26 12:16:46;;;;;;;3.28;2.97;;;25.30;63.30;;;;;;5037901;28;20245;-83
2023/08/26 12:19:15;;;;;;;3.10;2.80;;;25.30;63.20;;;;;;5038662;28;20215;-83
2023/08/26 12:21:42;;;;;;;4.15;3.08;;;25.30;63.40;;;;;;5037730;28;20215;-83
2023/08/26 12:24:10;;;;;;;3.63;3.30;;;25.30;63.40;;;;;;5039935;28;20195;-83
2023/08/26 12:26:38;;;;;;;5.60;2.97;;;25.30;63.60;;;;;;5039331;28;20638;-83
2023/08/26 12:29:05;;;;;;;3.78;3.33;;;25.30;63.70;;;;;;5037634;28;20191;-83
2023/08/26 12:31:34;;;;;;;5.43;3.20;;;25.30;64.10;;;;;;5037487;28;20268;-83
2023/08/26 12:34:03;;;;;;;5.75;3.50;;;25.30;64.10;;;;;;5054773;28;20250;-83
2023/08/26 12:36:30;;;;;;;4.45;3.28;;;25.20;64.00;;;;;;5038026;28;20293;-83
2023/08/26 12:38:57;;;;;;;3.65;3.35;;;25.30;64.20;;;;;;5036705;28;20261;-83
2023/08/26 12:41:24;;;;;;;5.13;3.67;;;25.20;63.70;;;;;;5037499;28;20265;-83
2023/08/26 12:43:53;;;;;;;4.97;3.08;;;25.20;63.40;;;;;;5037138;28;20214;-84
2023/08/26 12:46:20;;;;;;;4.82;3.50;;;25.20;63.70;;;;;;5037833;28;20199;-83
2023/08/26 12:48:48;;;;;;;3.92;3.20;;;25.20;64.80;;;;;;5056191;28;20286;-84
2023/08/26 12:51:16;;;;;;;5.90;3.70;;;25.20;64.00;;;;;;5038176;28;20305;-84